Time;durP1;ratioP1;P1;durP2;ratioP2;P2;SDS_P1;SDS_P2;PMS_P1;PMS_P2;Temp;Humidity;BMP_temperature;BMP_pressure;BME280_temperature;BME280_humidity;BME280_pressure;Samples;Min_cycle;Max_cycle;Signal;HPM_P1;HPM_P2
2022/08/18 00:00:13;;;;;;;8.70;7.10;;;18.80;99.90;;;;;;5033399;28;20049;-70
2022/08/18 00:02:40;;;;;;;8.73;6.40;;;18.80;99.90;;;;;;5033474;28;20048;-70
2022/08/18 00:05:06;;;;;;;8.85;6.78;;;18.80;99.90;;;;;;5016068;28;20045;-70
2022/08/18 00:07:33;;;;;;;10.20;6.40;;;18.80;99.90;;;;;;5033396;28;20049;-70
2022/08/18 00:10:00;;;;;;;7.93;6.28;;;18.80;99.90;;;;;;5033704;28;20087;-70
2022/08/18 00:12:38;;;;;;;10.38;6.50;;;18.70;99.90;;;;;;5033773;28;20435;-70
2022/08/18 00:15:09;;;;;;;8.45;5.95;;;18.80;99.90;;;;;;5033389;28;20068;-70
2022/08/18 00:17:35;;;;;;;10.73;6.97;;;18.70;99.90;;;;;;5033881;28;20050;-70
2022/08/18 00:20:07;;;;;;;10.88;7.05;;;18.70;99.90;;;;;;5033738;28;20098;-70
2022/08/18 00:22:34;;;;;;;10.82;6.72;;;18.70;99.90;;;;;;5033329;28;20116;-70
2022/08/18 00:25:00;;;;;;;12.68;7.63;;;18.70;99.90;;;;;;5033163;28;20166;-70
2022/08/18 00:27:29;;;;;;;9.35;6.28;;;18.70;99.90;;;;;;5033916;28;20375;-70
2022/08/18 00:29:57;;;;;;;12.60;7.30;;;18.70;99.90;;;;;;5033170;28;20037;-70
2022/08/18 00:32:26;;;;;;;9.38;6.78;;;18.60;99.90;;;;;;5033870;28;20052;-70
2022/08/18 00:34:52;;;;;;;9.88;7.10;;;18.60;99.90;;;;;;5033021;28;20164;-70
2022/08/18 00:37:19;;;;;;;9.40;6.88;;;18.60;99.90;;;;;;5033604;28;20041;-70
2022/08/18 00:39:45;;;;;;;9.55;6.47;;;18.60;99.90;;;;;;5032974;28;20046;-70
2022/08/18 00:42:30;;;;;;;11.20;6.95;;;18.60;99.90;;;;;;5033066;28;20497;-70
2022/08/18 00:44:59;;;;;;;9.65;7.25;;;18.60;99.90;;;;;;5033132;28;20124;-70
2022/08/18 00:47:28;;;;;;;8.43;6.55;;;18.60;99.90;;;;;;5032949;28;20108;-70
2022/08/18 00:49:54;;;;;;;8.75;6.13;;;18.50;99.90;;;;;;5037333;28;20041;-70
2022/08/18 00:52:22;;;;;;;6.97;5.97;;;18.50;99.90;;;;;;5036741;28;20055;-70
2022/08/18 00:54:50;;;;;;;7.55;6.20;;;18.30;99.90;;;;;;5036936;28;20049;-70
2022/08/18 00:57:20;;;;;;;12.23;5.63;;;18.20;99.90;;;;;;5037431;28;20053;-70
2022/08/18 01:00:10;;;;;;;8.20;6.03;;;18.10;99.90;;;;;;5037186;28;20127;-70
2022/08/18 01:02:41;;;;;;;8.30;6.60;;;18.10;99.90;;;;;;5037460;28;20107;-70
2022/08/18 01:05:32;;;;;;;11.93;6.38;;;18.00;99.90;;;;;;5036871;28;20050;-70
2022/08/18 01:07:58;;;;;;;11.27;7.15;;;18.00;99.90;;;;;;5036786;28;20049;-70
2022/08/18 01:10:25;;;;;;;9.30;6.47;;;18.00;99.90;;;;;;5037186;28;20478;-70
2022/08/18 01:12:57;;;;;;;7.70;6.45;;;18.10;99.90;;;;;;5019104;28;20060;-70
2022/08/18 01:15:24;;;;;;;7.78;6.55;;;18.10;99.90;;;;;;5019456;28;20049;-70
2022/08/18 01:23:53;;;;;;;8.07;5.95;;;18.10;99.90;;;;;;5033429;28;20050;-70
2022/08/18 01:26:21;;;;;;;10.27;6.35;;;18.10;99.90;;;;;;5036301;28;20103;-70
2022/08/18 01:28:48;;;;;;;9.50;6.43;;;18.20;99.90;;;;;;5018632;28;20390;-70
2022/08/18 01:31:37;;;;;;;11.73;7.03;;;18.20;99.90;;;;;;5036774;28;20437;-70
2022/08/18 01:34:07;;;;;;;8.13;6.55;;;18.20;99.90;;;;;;5036251;28;20112;-70
2022/08/18 01:36:39;;;;;;;8.40;6.50;;;18.20;99.90;;;;;;5036457;28;20041;-70
2022/08/18 01:39:11;;;;;;;10.20;6.72;;;18.20;99.90;;;;;;5036404;28;20455;-70
2022/08/18 01:41:38;;;;;;;11.30;6.85;;;18.20;99.90;;;;;;5018497;28;20088;-70
2022/08/18 01:44:04;;;;;;;9.27;6.50;;;18.10;99.90;;;;;;5036563;28;20045;-70
2022/08/18 01:46:33;;;;;;;10.18;6.72;;;18.10;99.90;;;;;;5036026;28;20432;-70
2022/08/18 01:49:00;;;;;;;10.05;6.85;;;18.10;99.90;;;;;;5035982;28;20100;-70
2022/08/18 01:51:27;;;;;;;10.60;6.85;;;18.10;99.90;;;;;;5036268;28;20045;-70
2022/08/18 01:53:53;;;;;;;11.27;8.02;;;18.10;99.90;;;;;;5035836;28;20038;-70
2022/08/18 01:56:19;;;;;;;10.60;7.53;;;18.10;99.90;;;;;;5036039;28;20205;-70
2022/08/18 01:58:46;;;;;;;9.95;7.75;;;18.10;99.90;;;;;;5035805;28;20446;-70
2022/08/18 02:01:14;;;;;;;11.60;7.38;;;18.10;99.90;;;;;;5035658;28;20046;-70
2022/08/18 02:03:48;;;;;;;9.95;7.85;;;18.00;99.90;;;;;;5035731;28;20053;-70
2022/08/18 02:06:17;;;;;;;9.40;7.03;;;18.00;99.90;;;;;;5036500;28;20049;-70
2022/08/18 02:08:43;;;;;;;10.65;6.93;;;18.00;99.90;;;;;;5035609;28;20124;-70
2022/08/18 02:11:09;;;;;;;11.07;7.60;;;17.90;99.90;;;;;;5035491;28;20128;-70
2022/08/18 02:13:35;;;;;;;11.85;7.43;;;17.90;99.90;;;;;;5035492;28;20124;-70
2022/08/18 02:16:01;;;;;;;9.18;7.22;;;17.90;99.90;;;;;;5035951;28;20474;-70
2022/08/18 02:18:30;;;;;;;11.38;7.13;;;17.90;99.90;;;;;;5035421;28;20046;-70
2022/08/18 02:20:58;;;;;;;12.07;7.65;;;17.90;99.90;;;;;;5035297;28;20153;-70
2022/08/18 02:23:24;;;;;;;9.65;7.07;;;17.80;99.90;;;;;;5035329;28;20045;-70
2022/08/18 02:25:50;;;;;;;13.00;7.22;;;17.90;99.90;;;;;;5035169;28;20052;-70
2022/08/18 02:28:16;;;;;;;13.32;6.93;;;17.80;99.90;;;;;;5035450;28;20053;-70
2022/08/18 02:30:42;;;;;;;13.48;7.03;;;17.90;99.90;;;;;;5035445;28;20042;-70
2022/08/18 02:33:09;;;;;;;11.35;6.68;;;17.90;99.90;;;;;;5035515;28;20054;-70
2022/08/18 02:35:37;;;;;;;10.32;6.63;;;17.90;99.90;;;;;;5035099;28;20426;-70
2022/08/18 02:38:05;;;;;;;11.77;7.13;;;17.90;99.90;;;;;;5035146;28;20045;-70
2022/08/18 02:40:33;;;;;;;12.18;6.88;;;18.00;99.90;;;;;;5034916;28;20045;-70
2022/08/18 02:43:04;;;;;;;10.55;6.43;;;18.00;99.90;;;;;;5035279;28;20124;-70
2022/08/18 02:45:30;;;;;;;11.13;6.90;;;18.00;99.90;;;;;;5034996;28;20470;-70
2022/08/18 02:47:57;;;;;;;10.93;6.13;;;18.00;99.90;;;;;;5034891;28;20052;-70
2022/08/18 02:50:23;;;;;;;14.85;6.95;;;18.00;99.90;;;;;;5034871;28;20075;-70
2022/08/18 02:52:49;;;;;;;8.60;6.03;;;18.00;99.90;;;;;;5035537;28;20072;-69
2022/08/18 02:55:15;;;;;;;11.40;5.68;;;18.00;99.90;;;;;;5034607;28;20045;-70
2022/08/18 02:57:43;;;;;;;8.88;5.93;;;18.00;99.90;;;;;;5034638;28;20099;-70
2022/08/18 03:00:12;;;;;;;12.13;6.75;;;18.00;99.90;;;;;;5017021;28;20048;-70
2022/08/18 03:02:38;;;;;;;11.07;5.85;;;18.00;99.90;;;;;;5035346;28;20085;-71
2022/08/18 03:05:06;;;;;;;7.97;5.75;;;18.10;99.90;;;;;;5034515;28;20521;-70
2022/08/18 03:07:32;;;;;;;8.32;5.28;;;18.00;99.90;;;;;;5034446;28;20049;-70
2022/08/18 03:09:57;;;;;;;9.45;5.78;;;18.00;99.90;;;;;;5034383;28;20041;-70
2022/08/18 03:12:24;;;;;;;9.63;5.65;;;18.00;99.90;;;;;;5033559;28;20051;-70
2022/08/18 03:14:49;;;;;;;9.52;6.03;;;18.00;99.90;;;;;;5034369;28;20057;-70
2022/08/18 03:17:15;;;;;;;8.20;5.57;;;18.00;99.90;;;;;;5035046;28;20099;-70
2022/08/18 03:19:43;;;;;;;10.90;5.50;;;18.00;99.90;;;;;;5034075;28;20045;-70
2022/08/18 03:22:10;;;;;;;10.88;6.30;;;18.00;99.90;;;;;;5034246;28;20156;-71
2022/08/18 03:24:35;;;;;;;9.55;5.47;;;18.00;99.90;;;;;;5034458;28;20136;-70
2022/08/18 03:27:05;;;;;;;12.27;5.70;;;18.00;99.90;;;;;;5034237;28;20128;-71
2022/08/18 03:29:31;;;;;;;9.70;6.00;;;18.00;99.90;;;;;;5034347;28;20065;-70
2022/08/18 03:31:57;;;;;;;8.43;5.78;;;18.00;99.90;;;;;;5033960;28;20053;-70
2022/08/18 03:34:23;;;;;;;11.05;5.90;;;18.00;99.90;;;;;;5033493;28;20103;-70
2022/08/18 03:36:50;;;;;;;10.05;6.07;;;18.00;99.90;;;;;;5034100;28;20433;-70
2022/08/18 03:39:17;;;;;;;9.05;6.25;;;18.00;99.90;;;;;;5033740;28;20049;-70
2022/08/18 03:41:45;;;;;;;10.02;5.90;;;18.00;99.90;;;;;;5033865;28;20127;-70
2022/08/18 03:44:13;;;;;;;12.55;6.05;;;18.00;99.90;;;;;;5033811;28;20055;-71
2022/08/18 03:46:43;;;;;;;10.95;6.10;;;18.00;99.90;;;;;;5033769;28;20049;-70
2022/08/18 03:49:09;;;;;;;10.63;6.40;;;18.00;99.90;;;;;;5034283;28;20175;-70
2022/08/18 03:51:36;;;;;;;10.07;6.18;;;18.00;99.90;;;;;;5033977;28;20128;-70
2022/08/18 03:54:04;;;;;;;9.45;6.35;;;18.00;99.90;;;;;;5033651;28;20128;-70
2022/08/18 03:56:36;;;;;;;8.93;6.18;;;18.00;99.90;;;;;;5033597;28;20053;-71
2022/08/18 03:59:10;;;;;;;9.57;6.45;;;18.00;99.90;;;;;;5033520;28;20051;-70
2022/08/18 04:01:41;;;;;;;9.80;6.45;;;18.00;99.90;;;;;;5034387;28;20122;-70
2022/08/18 04:04:11;;;;;;;10.75;6.32;;;18.10;99.90;;;;;;5034079;28;20041;-70
2022/08/18 04:06:42;;;;;;;11.52;7.53;;;18.10;99.90;;;;;;5033576;28;20092;-71
2022/08/18 04:09:11;;;;;;;10.98;7.10;;;18.00;99.90;;;;;;5033667;28;20111;-71
2022/08/18 04:11:42;;;;;;;11.48;6.55;;;18.10;99.90;;;;;;5033382;28;20509;-70
2022/08/18 04:14:08;;;;;;;8.10;6.00;;;18.00;99.90;;;;;;5033488;28;20045;-71
2022/08/18 04:16:35;;;;;;;9.77;6.32;;;18.00;99.90;;;;;;5033313;28;20045;-71
2022/08/18 04:19:02;;;;;;;12.65;7.03;;;18.00;99.90;;;;;;5033227;28;20053;-70
2022/08/18 04:21:30;;;;;;;9.95;7.00;;;18.00;99.90;;;;;;5016509;28;20371;-71
2022/08/18 04:23:58;;;;;;;11.05;6.38;;;18.00;99.90;;;;;;5015248;28;20053;-71
2022/08/18 04:26:24;;;;;;;9.48;6.63;;;18.10;99.90;;;;;;5033160;28;20129;-70
2022/08/18 04:28:50;;;;;;;10.85;6.72;;;18.00;99.90;;;;;;5033189;28;20518;-71
2022/08/18 04:31:16;;;;;;;8.98;6.63;;;18.10;99.90;;;;;;5015565;28;20049;-71
2022/08/18 04:33:42;;;;;;;9.55;7.05;;;18.10;99.90;;;;;;5033022;28;20058;-71
2022/08/18 04:36:17;;;;;;;9.15;6.13;;;18.10;99.90;;;;;;5032773;28;20056;-71
2022/08/18 04:38:43;;;;;;;12.60;6.78;;;18.10;99.90;;;;;;5032285;28;20052;-71
2022/08/18 04:41:13;;;;;;;11.90;6.88;;;18.10;99.90;;;;;;5032211;28;20112;-70
2022/08/18 04:43:40;;;;;;;9.20;7.22;;;18.10;99.90;;;;;;5032832;28;20056;-71
2022/08/18 04:46:05;;;;;;;9.43;7.32;;;18.10;99.90;;;;;;5033419;28;20050;-71
2022/08/18 04:48:37;;;;;;;13.18;7.60;;;18.10;99.90;;;;;;5032854;28;20126;-71
2022/08/18 04:51:05;;;;;;;10.00;7.28;;;18.10;99.90;;;;;;5032880;28;20046;-71
2022/08/18 04:53:43;;;;;;;9.68;7.55;;;18.00;99.90;;;;;;5032898;28;20053;-70
2022/08/18 04:56:13;;;;;;;13.02;7.85;;;18.10;99.90;;;;;;5032927;28;20049;-70
2022/08/18 04:58:39;;;;;;;8.68;7.03;;;18.10;99.90;;;;;;5033076;28;20048;-70
2022/08/18 05:01:05;;;;;;;13.77;7.65;;;18.10;99.90;;;;;;5032821;28;20449;-70
2022/08/18 05:03:31;;;;;;;10.93;7.47;;;18.10;99.90;;;;;;5032826;28;20045;-70
2022/08/18 05:05:58;;;;;;;12.95;7.18;;;18.10;99.90;;;;;;5015384;28;20049;-70
2022/08/18 05:08:25;;;;;;;11.02;6.80;;;18.10;99.90;;;;;;5033408;28;20128;-70
2022/08/18 05:10:56;;;;;;;11.40;7.63;;;18.10;99.90;;;;;;5015210;28;20045;-70
2022/08/18 05:13:24;;;;;;;13.45;7.18;;;18.10;99.90;;;;;;5016170;28;20050;-70
2022/08/18 05:15:58;;;;;;;14.10;7.00;;;18.10;99.90;;;;;;5032690;28;20049;-70
2022/08/18 05:18:24;;;;;;;15.00;7.97;;;18.10;99.90;;;;;;4998658;28;20057;-70
2022/08/18 05:20:55;;;;;;;12.40;7.18;;;18.10;99.90;;;;;;5032530;28;20054;-70
2022/08/18 05:23:21;;;;;;;11.48;7.75;;;18.20;99.90;;;;;;5032489;28;20052;-70
2022/08/18 05:25:47;;;;;;;10.88;7.13;;;18.20;99.90;;;;;;5032586;28;20479;-70
2022/08/18 05:28:14;;;;;;;12.82;7.03;;;18.20;99.90;;;;;;5015001;28;20088;-70
2022/08/18 05:30:40;;;;;;;11.85;7.18;;;18.20;99.90;;;;;;5032566;28;20041;-70
2022/08/18 05:33:09;;;;;;;12.15;6.72;;;18.20;99.90;;;;;;5015067;28;20155;-70
2022/08/18 05:36:02;;;;;;;13.98;7.07;;;18.30;99.90;;;;;;5035785;28;20558;-70
2022/08/18 05:38:38;;;;;;;10.57;7.22;;;18.30;99.90;;;;;;5036960;28;20054;-71
2022/08/18 05:41:11;;;;;;;12.35;6.07;;;18.30;99.90;;;;;;5018952;28;20045;-71
2022/08/18 05:43:38;;;;;;;12.25;7.00;;;18.30;99.90;;;;;;5036854;28;20128;-71
2022/08/18 05:46:06;;;;;;;11.90;6.63;;;18.30;99.90;;;;;;5036014;28;20052;-71
2022/08/18 05:48:34;;;;;;;16.48;7.57;;;18.30;99.90;;;;;;5036018;28;20049;-71
2022/08/18 05:51:10;;;;;;;14.40;7.15;;;18.40;99.90;;;;;;5036707;28;20045;-71
2022/08/18 05:59:12;;;;;;;8.90;6.40;;;18.40;99.90;;;;;;5035482;28;20429;-71
2022/08/18 06:01:46;;;;;;;9.82;6.50;;;18.40;99.90;;;;;;5018203;28;20052;-71
2022/08/18 06:04:38;;;;;;;15.15;6.68;;;18.40;99.90;;;;;;5035694;28;20054;-71
2022/08/18 06:07:08;;;;;;;10.27;6.00;;;18.40;99.90;;;;;;5035757;28;20045;-71
2022/08/18 06:09:50;;;;;;;11.75;6.50;;;18.40;99.90;;;;;;5036125;28;20423;-71
2022/08/18 06:12:19;;;;;;;11.48;7.10;;;18.50;99.90;;;;;;5036401;28;20045;-71
2022/08/18 06:14:45;;;;;;;8.85;6.10;;;18.50;99.90;;;;;;5035525;28;20049;-67
2022/08/18 06:17:31;;;;;;;8.75;6.18;;;18.60;99.90;;;;;;5035441;28;20132;-66
2022/08/18 06:20:10;;;;;;;11.85;6.25;;;18.70;99.90;;;;;;5035417;28;20092;-66
2022/08/18 06:22:51;;;;;;;11.00;6.13;;;18.70;99.90;;;;;;5035893;28;20189;-65
2022/08/18 06:25:22;;;;;;;8.45;6.05;;;18.70;99.90;;;;;;5035849;28;20049;-65
2022/08/18 06:27:58;;;;;;;8.43;5.60;;;18.70;99.90;;;;;;5017990;28;20140;-65
2022/08/18 06:30:46;;;;;;;9.70;5.47;;;18.80;99.90;;;;;;5035228;28;20398;-66
2022/08/18 06:33:42;;;;;;;8.07;5.10;;;18.80;99.90;;;;;;5034872;28;20129;-66
2022/08/18 06:36:37;;;;;;;9.18;5.30;;;18.80;99.90;;;;;;5034821;28;20064;-66
2022/08/18 06:39:25;;;;;;;7.47;5.18;;;18.80;99.90;;;;;;5035794;28;20049;-65
2022/08/18 06:41:52;;;;;;;10.75;5.25;;;18.80;99.90;;;;;;5035247;28;20104;-65
2022/08/18 06:44:40;;;;;;;7.03;5.05;;;18.80;99.90;;;;;;5035291;28;20453;-65
2022/08/18 06:47:30;;;;;;;8.95;4.82;;;18.90;99.90;;;;;;5033812;28;20057;-65
2022/08/18 06:50:09;;;;;;;6.50;4.47;;;18.90;99.90;;;;;;5034845;28;20048;-65
2022/08/18 06:53:01;;;;;;;7.15;5.05;;;18.90;99.90;;;;;;5034859;28;20038;-65
2022/08/18 06:55:44;;;;;;;7.72;4.78;;;19.00;99.90;;;;;;5035279;28;20049;-65
2022/08/18 06:58:16;;;;;;;8.55;5.03;;;19.00;99.90;;;;;;5035487;28;20390;-65
2022/08/18 07:00:54;;;;;;;9.50;4.90;;;19.00;99.90;;;;;;5034995;28;20413;-65
2022/08/18 07:03:23;;;;;;;7.95;5.20;;;19.10;99.90;;;;;;5035166;28;20428;-65
2022/08/18 07:06:19;;;;;;;8.85;5.03;;;19.10;99.90;;;;;;5034516;28;20498;-65
2022/08/18 07:08:46;;;;;;;;;;;19.10;99.90;;;;;;5035556;28;20049;-65
2022/08/18 07:11:26;;;;;;;6.43;5.22;;;19.10;99.90;;;;;;5017730;28;20282;-65
2022/08/18 07:13:56;;;;;;;7.82;4.55;;;19.10;99.90;;;;;;5034298;28;20100;-65
2022/08/18 07:16:28;;;;;;;7.40;4.88;;;19.10;99.90;;;;;;5034257;28;20037;-66
2022/08/18 07:19:17;;;;;;;7.75;5.65;;;19.20;99.90;;;;;;5034160;28;20053;-66
2022/08/18 07:21:43;;;;;;;7.70;5.30;;;19.20;99.90;;;;;;5034545;28;20111;-66
2022/08/18 07:24:20;;;;;;;6.85;5.00;;;19.20;99.90;;;;;;5016738;28;20053;-66
2022/08/18 07:27:09;;;;;;;9.93;5.00;;;19.20;99.90;;;;;;5034037;28;20045;-65
2022/08/18 07:29:40;;;;;;;6.60;4.68;;;19.30;99.90;;;;;;5016399;28;20060;-66
2022/08/18 07:32:20;;;;;;;6.60;4.78;;;19.40;99.90;;;;;;5016845;28;20441;-66
2022/08/18 07:34:50;;;;;;;7.43;4.95;;;19.40;99.90;;;;;;5034340;28;20068;-66
2022/08/18 07:37:22;;;;;;;7.63;4.72;;;19.40;99.90;;;;;;5033975;28;20045;-66
2022/08/18 07:39:56;;;;;;;5.53;4.40;;;19.50;99.90;;;;;;5034289;28;20450;-66
2022/08/18 07:42:38;;;;;;;8.20;4.47;;;19.60;99.90;;;;;;5034274;28;20041;-66
2022/08/18 07:45:32;;;;;;;8.07;4.70;;;19.70;99.90;;;;;;5033757;28;20041;-67
2022/08/18 07:48:20;;;;;;;8.27;4.85;;;19.80;99.90;;;;;;5005907;28;20097;-66
2022/08/18 07:50:55;;;;;;;8.00;5.30;;;19.90;99.90;;;;;;5033745;28;20041;-66
2022/08/18 07:53:53;;;;;;;8.02;4.88;;;20.00;99.90;;;;;;5034250;28;20406;-65
2022/08/18 07:56:19;;;;;;;5.07;4.28;;;20.30;99.90;;;;;;4962816;28;20055;-65
2022/08/18 07:58:57;;;;;;;6.78;4.72;;;20.30;99.90;;;;;;5033514;28;20046;-65
2022/08/18 08:02:06;;;;;;;6.78;4.35;;;20.40;99.90;;;;;;5034003;28;20045;-65
2022/08/18 08:04:56;;;;;;;6.85;4.30;;;20.40;99.90;;;;;;5034065;28;20054;-65
2022/08/18 08:07:54;;;;;;;7.40;4.38;;;20.30;99.90;;;;;;5032518;28;20057;-65
2022/08/18 08:10:31;;;;;;;6.65;4.10;;;20.20;99.90;;;;;;5033150;28;20510;-65
2022/08/18 08:13:05;;;;;;;7.90;4.47;;;20.10;99.90;;;;;;5033514;28;20060;-65
2022/08/18 08:15:44;;;;;;;6.13;4.60;;;20.00;99.90;;;;;;5033230;28;20067;-65
2022/08/18 08:18:34;;;;;;;6.15;4.22;;;20.00;99.90;;;;;;5033524;28;20072;-66
2022/08/18 08:21:15;;;;;;;5.45;4.47;;;20.00;99.90;;;;;;4998906;28;20040;-66
2022/08/18 08:23:56;;;;;;;6.35;3.90;;;20.00;99.90;;;;;;5033394;28;20053;-67
2022/08/18 08:26:26;;;;;;;5.35;3.28;;;20.10;99.90;;;;;;5033273;28;20072;-66
2022/08/18 08:29:26;;;;;;;6.22;3.72;;;20.10;99.90;;;;;;5034101;28;20369;-67
2022/08/18 08:32:01;;;;;;;8.48;3.92;;;20.20;99.90;;;;;;5032875;28;20044;-67
2022/08/18 08:34:38;;;;;;;4.13;3.30;;;20.30;99.90;;;;;;5015533;28;20482;-67
2022/08/18 08:37:08;;;;;;;7.25;3.58;;;20.30;99.90;;;;;;5034065;28;20049;-67
2022/08/18 08:39:59;;;;;;;3.88;3.10;;;20.30;99.90;;;;;;5033011;28;20033;-65
2022/08/18 08:42:32;;;;;;;5.88;3.10;;;20.30;99.90;;;;;;5033396;28;20481;-65
2022/08/18 08:45:12;;;;;;;9.98;5.57;;;20.30;99.90;;;;;;5032802;28;20049;-64
2022/08/18 08:47:46;;;;;;;6.53;3.55;;;20.40;99.90;;;;;;5016195;28;20437;-65
2022/08/18 08:50:26;;;;;;;5.45;3.42;;;20.50;99.90;;;;;;5033098;28;20045;-65
2022/08/18 08:52:58;;;;;;;6.30;3.63;;;20.60;99.90;;;;;;4999498;28;20081;-64
2022/08/18 08:55:29;;;;;;;7.03;4.18;;;20.70;99.90;;;;;;5033024;28;20077;-65
2022/08/18 08:58:06;;;;;;;4.25;2.67;;;20.70;99.90;;;;;;5033030;28;20042;-65
2022/08/18 09:00:32;;;;;;;5.28;3.15;;;20.70;99.90;;;;;;5033319;28;20072;-65
2022/08/18 09:03:36;;;;;;;5.38;2.70;;;20.70;99.90;;;;;;5033676;28;20049;-65
2022/08/18 09:06:15;;;;;;;5.70;3.13;;;20.70;99.90;;;;;;5020045;28;20060;-64
2022/08/18 09:09:07;;;;;;;5.35;3.20;;;20.70;99.90;;;;;;5033280;28;20136;-65
2022/08/18 09:12:33;;;;;;;6.13;2.40;;;20.60;99.90;;;;;;4996213;28;20049;-65
2022/08/18 09:15:26;;;;;;;3.85;2.70;;;20.40;99.90;;;;;;4982264;28;20367;-65
2022/08/18 09:17:55;;;;;;;6.07;2.83;;;20.30;99.90;;;;;;5019171;28;20490;-65
2022/08/18 09:20:39;;;;;;;6.13;3.13;;;20.10;99.90;;;;;;5018933;28;20496;-65
2022/08/18 09:23:13;;;;;;;4.38;2.50;;;20.10;99.90;;;;;;5036603;28;20124;-64
2022/08/18 09:25:42;;;;;;;3.47;2.55;;;20.00;99.90;;;;;;5036492;28;20102;-65
2022/08/18 09:28:33;;;;;;;4.32;2.75;;;20.00;99.90;;;;;;5036460;28;20081;-65
2022/08/18 09:31:04;;;;;;;5.47;2.75;;;20.00;99.90;;;;;;4998720;28;20092;-64
2022/08/18 09:33:44;;;;;;;5.30;2.55;;;19.90;99.90;;;;;;5036283;28;20049;-64
2022/08/18 09:36:16;;;;;;;4.60;2.65;;;20.00;99.90;;;;;;5018941;28;20050;-65
2022/08/18 09:41:49;;;;;;;4.53;2.53;;;19.90;99.90;;;;;;5035994;28;20563;-65
2022/08/18 09:44:46;;;;;;;4.30;2.72;;;19.90;99.90;;;;;;5036208;28;20033;-65
2022/08/18 09:47:32;;;;;;;6.18;3.42;;;19.90;99.90;;;;;;5036043;28;20512;-65
2022/08/18 09:50:04;;;;;;;7.30;3.42;;;19.90;99.90;;;;;;5036312;28;20052;-65
2022/08/18 09:52:33;;;;;;;4.93;3.33;;;20.00;99.90;;;;;;5018358;28;20045;-64
2022/08/18 09:54:58;;;;;;;7.40;3.40;;;20.00;99.90;;;;;;5035948;28;20049;-64
2022/08/18 09:57:28;;;;;;;6.10;3.60;;;20.10;99.90;;;;;;5035813;28;20053;-65
2022/08/18 10:00:03;;;;;;;5.40;3.97;;;20.10;99.90;;;;;;5036389;28;20048;-65
2022/08/18 10:02:28;;;;;;;6.10;3.90;;;20.20;99.90;;;;;;5036319;28;20370;-65
2022/08/18 10:05:16;;;;;;;6.03;4.15;;;20.30;99.90;;;;;;5035785;28;20045;-64
2022/08/18 10:07:47;;;;;;;5.38;4.13;;;20.40;99.90;;;;;;5035895;28;20146;-65
2022/08/18 10:10:20;;;;;;;6.55;3.80;;;20.40;99.90;;;;;;5035667;28;20092;-65
2022/08/18 10:13:13;;;;;;;7.50;3.72;;;20.40;99.90;;;;;;5035633;28;20052;-65
2022/08/18 10:15:56;;;;;;;5.38;3.50;;;20.40;99.90;;;;;;5035957;28;20041;-64
2022/08/18 10:18:49;;;;;;;5.25;3.78;;;20.40;99.90;;;;;;5018134;28;20046;-65
2022/08/18 10:21:59;;;;;;;6.07;3.38;;;20.40;99.90;;;;;;5034189;28;20077;-65
2022/08/18 10:24:53;;;;;;;6.50;3.20;;;20.50;99.90;;;;;;5009959;28;20092;-64
2022/08/18 10:27:43;;;;;;;6.35;3.38;;;20.50;99.90;;;;;;5035406;28;20075;-64
2022/08/18 10:30:32;;;;;;;4.85;3.63;;;20.60;99.90;;;;;;5035374;28;20049;-64
2022/08/18 10:32:59;;;;;;;5.15;3.13;;;20.60;99.90;;;;;;5035350;28;20081;-64
2022/08/18 10:35:34;;;;;;;8.10;3.53;;;20.70;99.90;;;;;;5036059;28;20115;-65
2022/08/18 10:38:11;;;;;;;4.90;3.13;;;20.80;99.90;;;;;;5035252;28;20045;-65
2022/08/18 10:40:39;;;;;;;5.57;3.50;;;20.80;99.90;;;;;;5035389;28;20128;-64
2022/08/18 10:43:16;;;;;;;4.97;3.60;;;20.80;99.90;;;;;;5035902;28;20045;-65
2022/08/18 10:45:52;;;;;;;6.80;4.03;;;20.90;99.90;;;;;;5035047;28;20042;-65
2022/08/18 10:48:23;;;;;;;5.47;3.92;;;20.90;99.90;;;;;;5035565;28;20371;-65
2022/08/18 10:50:51;;;;;;;7.10;4.40;;;20.90;99.90;;;;;;5034977;28;20040;-64
2022/08/18 10:53:29;;;;;;;7.40;4.40;;;21.00;99.90;;;;;;5017541;28;20049;-65
2022/08/18 10:56:32;;;;;;;6.45;3.75;;;21.00;99.90;;;;;;5035282;28;20041;-65
2022/08/18 10:59:18;;;;;;;4.85;3.58;;;20.90;99.90;;;;;;5034883;28;20056;-64
2022/08/18 11:01:58;;;;;;;4.22;3.10;;;20.90;99.90;;;;;;5035334;28;20045;-65
2022/08/18 11:04:33;;;;;;;4.55;3.33;;;20.90;99.90;;;;;;5034824;28;20073;-65
2022/08/18 11:07:09;;;;;;;6.72;2.92;;;20.90;99.90;;;;;;5034356;28;20094;-66
2022/08/18 11:09:36;;;;;;;4.70;3.05;;;20.90;99.90;;;;;;5034309;28;20490;-65
2022/08/18 11:12:02;;;;;;;3.85;2.83;;;21.00;99.90;;;;;;5033986;28;20083;-66
2022/08/18 11:14:53;;;;;;;3.45;2.28;;;21.00;99.90;;;;;;5034927;28;20057;-65
2022/08/18 11:17:40;;;;;;;3.20;2.17;;;21.00;99.90;;;;;;5033967;28;20478;-65
2022/08/18 11:20:08;;;;;;;4.25;2.80;;;21.00;99.90;;;;;;5034312;28;20037;-65
2022/08/18 11:22:35;;;;;;;3.90;3.17;;;21.00;99.90;;;;;;5016712;28;20042;-65
2022/08/18 11:25:17;;;;;;;5.45;3.10;;;21.00;99.90;;;;;;5016636;28;20517;-65
2022/08/18 11:27:45;;;;;;;4.60;3.35;;;20.90;99.90;;;;;;5034449;28;20041;-65
2022/08/18 11:30:11;;;;;;;4.03;3.30;;;20.90;99.90;;;;;;5034080;28;20044;-65
2022/08/18 11:32:39;;;;;;;4.47;3.35;;;20.90;99.90;;;;;;5034371;28;20033;-66
2022/08/18 11:35:05;;;;;;;4.82;3.10;;;20.90;99.90;;;;;;5034575;28;20053;-65
2022/08/18 11:37:30;;;;;;;4.65;2.83;;;21.00;99.90;;;;;;5016307;28;20063;-67
2022/08/18 11:39:59;;;;;;;4.03;2.85;;;21.00;99.90;;;;;;5017168;28;20136;-66
2022/08/18 11:42:37;;;;;;;4.25;3.05;;;21.10;99.90;;;;;;5016667;28;20390;-66
2022/08/18 11:45:16;;;;;;;4.88;3.15;;;21.20;99.90;;;;;;5033923;28;20095;-66
2022/08/18 11:48:15;;;;;;;3.95;3.10;;;21.20;99.90;;;;;;5034236;28;20041;-66
2022/08/18 11:50:49;;;;;;;5.03;2.67;;;21.30;99.90;;;;;;5016854;28;20174;-66
2022/08/18 11:53:31;;;;;;;3.17;2.53;;;21.30;99.90;;;;;;5034443;28;20063;-66
2022/08/18 11:56:31;;;;;;;3.40;2.10;;;21.50;99.90;;;;;;5033568;28;20056;-66
2022/08/18 11:59:07;;;;;;;3.60;2.17;;;21.70;99.90;;;;;;5033724;28;20075;-66
2022/08/18 12:01:48;;;;;;;2.40;1.60;;;21.90;99.90;;;;;;5033977;28;20092;-66
2022/08/18 12:04:23;;;;;;;4.88;2.53;;;22.20;99.90;;;;;;5033653;28;20490;-66
2022/08/18 12:06:55;;;;;;;3.97;1.75;;;22.50;99.90;;;;;;5033439;28;20128;-67
2022/08/18 12:09:39;;;;;;;3.05;1.55;;;22.60;99.90;;;;;;5015747;28;20099;-70
2022/08/18 12:12:31;;;;;;;2.58;1.60;;;22.70;99.90;;;;;;5033511;28;20124;-66
2022/08/18 12:15:25;;;;;;;3.58;1.70;;;22.90;99.90;;;;;;5029571;28;20053;-66
2022/08/18 12:17:51;;;;;;;4.32;1.75;;;22.90;99.90;;;;;;5016736;28;20409;-65
2022/08/18 12:20:17;;;;;;;3.50;1.65;;;22.70;99.90;;;;;;5015794;28;20063;-66
2022/08/18 12:22:44;;;;;;;3.45;1.90;;;22.60;99.90;;;;;;5033311;28;20099;-66
2022/08/18 12:25:13;;;;;;;2.67;1.85;;;22.50;99.90;;;;;;5033271;28;20420;-65
2022/08/18 12:27:40;;;;;;;3.28;2.30;;;22.50;99.90;;;;;;5015453;28;20050;-65
2022/08/18 12:30:07;;;;;;;3.80;2.10;;;22.60;99.90;;;;;;5033199;28;20115;-65
2022/08/18 12:32:34;;;;;;;3.72;2.20;;;22.60;99.90;;;;;;5033035;28;20041;-66
2022/08/18 12:35:02;;;;;;;4.28;2.10;;;22.50;99.90;;;;;;5033627;28;20136;-66
2022/08/18 12:37:29;;;;;;;3.75;2.20;;;22.50;99.90;;;;;;5033042;28;20064;-66
2022/08/18 12:39:57;;;;;;;4.18;2.40;;;22.40;99.90;;;;;;5033335;28;20057;-66
2022/08/18 12:42:23;;;;;;;2.83;2.03;;;22.40;99.90;;;;;;5033870;28;20049;-66
2022/08/18 12:44:50;;;;;;;4.43;1.88;;;22.40;99.90;;;;;;5035264;28;20045;-66
2022/08/18 12:47:20;;;;;;;3.50;2.03;;;22.40;99.90;;;;;;5037181;28;20049;-66
2022/08/18 12:49:46;;;;;;;4.25;2.50;;;22.40;99.90;;;;;;5037201;28;20038;-66
2022/08/18 12:52:12;;;;;;;3.78;2.05;;;22.50;99.90;;;;;;5037146;28;20045;-66
2022/08/18 12:54:38;;;;;;;3.35;1.80;;;22.50;99.90;;;;;;5037036;28;20049;-66
2022/08/18 12:57:07;;;;;;;4.72;1.92;;;22.50;99.90;;;;;;5020298;28;20116;-66
2022/08/18 12:59:35;;;;;;;2.70;1.63;;;22.50;99.90;;;;;;5036931;28;20041;-66
2022/08/18 13:02:01;;;;;;;2.60;1.50;;;22.50;99.90;;;;;;5037368;28;20434;-66
2022/08/18 13:04:27;;;;;;;3.15;1.45;;;22.50;99.90;;;;;;5036589;28;20124;-66
2022/08/18 13:06:55;;;;;;;5.60;1.20;;;22.50;99.90;;;;;;5036903;28;20410;-66
2022/08/18 13:09:21;;;;;;;4.20;1.40;;;22.50;99.90;;;;;;5037202;28;20053;-66
2022/08/18 13:11:47;;;;;;;3.67;1.48;;;22.60;99.90;;;;;;5036638;28;20042;-66
2022/08/18 13:14:14;;;;;;;3.75;1.50;;;22.60;99.90;;;;;;5037170;28;20049;-66
2022/08/18 13:16:43;;;;;;;2.63;1.50;;;22.70;99.90;;;;;;5003112;28;20049;-65
2022/08/18 13:19:09;;;;;;;3.42;1.52;;;22.70;99.90;;;;;;5019162;28;20041;-66
2022/08/18 13:21:35;;;;;;;3.83;1.50;;;22.70;99.90;;;;;;5036441;28;20037;-65
2022/08/18 13:24:03;;;;;;;3.50;1.55;;;22.70;99.90;;;;;;5036464;28;20084;-64
2022/08/18 13:26:32;;;;;;;3.90;1.30;;;22.70;99.90;;;;;;5036400;28;20053;-65
2022/08/18 13:28:58;;;;;;;4.13;1.58;;;22.70;99.90;;;;;;5036443;28;20045;-66